createdAt,value
2023-04-17T00:04:22.599Z,5.10
2023-04-17T00:07:29.086Z,5.50
2023-04-17T00:10:35.540Z,5.20
2023-04-17T00:13:41.814Z,5.10
2023-04-17T00:16:48.214Z,5.30
2023-04-17T00:19:54.316Z,5.20
2023-04-17T00:23:00.522Z,5.30
2023-04-17T00:26:06.766Z,5.40
2023-04-17T00:29:14.330Z,5.40
2023-04-17T00:32:20.525Z,5.30
2023-04-17T00:35:26.866Z,5.50
2023-04-17T00:38:32.945Z,5.50
2023-04-17T00:41:39.131Z,5.70
2023-04-17T00:44:45.254Z,6.00
2023-04-17T00:47:52.811Z,6.00
2023-04-17T00:51:02.272Z,5.70
2023-04-17T00:54:08.822Z,6.00
2023-04-17T00:57:15.395Z,5.90
2023-04-17T01:00:22.172Z,5.90
2023-04-17T01:03:29.722Z,6.00
2023-04-17T01:06:36.274Z,5.90
2023-04-17T01:09:45.870Z,6.50
2023-04-17T01:13:02.090Z,6.00
2023-04-17T01:16:08.657Z,6.20
2023-04-17T01:19:16.651Z,5.90
2023-04-17T01:22:23.025Z,6.40
2023-04-17T01:25:31.306Z,6.30
2023-04-17T01:28:37.512Z,5.90
2023-04-17T01:31:43.617Z,6.00
2023-04-17T01:34:49.931Z,6.20
2023-04-17T01:37:56.651Z,5.70
2023-04-17T01:41:09.714Z,6.50
2023-04-17T01:44:16.351Z,6.30
2023-04-17T01:47:22.508Z,6.40
2023-04-17T01:50:28.930Z,6.00
2023-04-17T01:53:36.349Z,6.30
2023-04-17T01:56:42.514Z,6.40
2023-04-17T01:59:48.605Z,6.00
2023-04-17T02:02:55.249Z,6.40
2023-04-17T02:06:01.414Z,6.30
2023-04-17T02:09:08.100Z,5.90
2023-04-17T02:12:14.167Z,6.20
2023-04-17T02:15:20.945Z,6.30
2023-04-17T02:18:27.118Z,6.70
2023-04-17T02:21:33.389Z,6.50
2023-04-17T02:24:39.967Z,6.40
2023-04-17T02:27:48.581Z,6.70
2023-04-17T02:30:54.883Z,6.90
2023-04-17T02:34:01.268Z,6.80
2023-04-17T02:37:07.383Z,6.20
2023-04-17T02:40:14.513Z,6.60
2023-04-17T02:43:20.667Z,7.20
2023-04-17T02:46:27.470Z,7.00
2023-04-17T02:49:34.466Z,6.90
2023-04-17T02:52:41.449Z,6.80
2023-04-17T02:55:47.573Z,7.00
2023-04-17T02:58:54.133Z,6.60
2023-04-17T03:02:00.694Z,7.10
2023-04-17T03:05:08.125Z,6.70
2023-04-17T03:08:14.166Z,7.20
2023-04-17T03:11:20.590Z,6.80
2023-04-17T03:14:26.795Z,7.00
2023-04-17T03:17:33.223Z,6.70
2023-04-17T03:20:39.527Z,7.50
2023-04-17T03:23:46.303Z,6.70
2023-04-17T03:26:52.320Z,7.50
2023-04-17T03:29:58.665Z,7.50
2023-04-17T03:33:04.849Z,7.20
2023-04-17T03:36:11.683Z,7.60
2023-04-17T03:39:18.050Z,7.80
2023-04-17T03:42:24.834Z,7.50
2023-04-17T03:45:30.877Z,7.20
2023-04-17T03:48:37.644Z,7.20
2023-04-17T03:51:43.810Z,7.30
2023-04-17T03:54:50.283Z,7.40
2023-04-17T03:57:56.581Z,7.70
2023-04-17T04:01:03.353Z,7.00
2023-04-17T04:04:10.033Z,7.20
2023-04-17T04:07:16.628Z,7.20
2023-04-17T04:10:22.692Z,7.70
2023-04-17T04:13:28.833Z,7.10
2023-04-17T04:16:35.544Z,7.30
2023-04-17T04:19:43.641Z,7.30
2023-04-17T04:22:49.889Z,6.70
2023-04-17T04:25:57.211Z,7.20
2023-04-17T04:29:03.553Z,7.90
2023-04-17T04:32:13.926Z,7.50
2023-04-17T04:35:20.352Z,7.10
2023-04-17T04:38:30.297Z,7.80
2023-04-17T04:41:36.346Z,7.60
2023-04-17T04:44:43.920Z,7.50
2023-04-17T04:47:50.235Z,7.80
2023-04-17T04:50:56.822Z,7.70
2023-04-17T04:54:03.414Z,7.70
2023-04-17T04:57:10.270Z,7.60
2023-04-17T05:00:18.693Z,7.80
2023-04-17T05:03:25.309Z,8.10
2023-04-17T05:06:31.566Z,7.80
2023-04-17T05:09:38.071Z,8.10
2023-04-17T05:12:44.547Z,7.60
2023-04-17T05:15:51.112Z,7.60
2023-04-17T05:18:57.598Z,7.80
2023-04-17T05:22:04.396Z,8.00
2023-04-17T05:25:12.777Z,7.60
2023-04-17T05:28:19.430Z,7.60
2023-04-17T05:31:26.351Z,7.10
2023-04-17T05:34:32.815Z,7.20
2023-04-17T05:37:38.910Z,7.40
2023-04-17T05:40:45.419Z,7.60
2023-04-17T05:43:52.168Z,7.70
2023-04-17T05:47:00.325Z,7.70
2023-04-17T05:50:07.875Z,7.60
2023-04-17T05:53:14.585Z,8.10
2023-04-17T05:56:21.129Z,7.70
2023-04-17T05:59:27.531Z,7.60
2023-04-17T06:02:34.140Z,8.00
2023-04-17T06:05:41.474Z,7.00
2023-04-17T06:08:47.604Z,7.10
2023-04-17T06:11:53.939Z,7.20
2023-04-17T06:15:00.074Z,7.80
2023-04-17T06:18:07.201Z,6.80
2023-04-17T06:21:13.947Z,7.00
2023-04-17T06:24:20.289Z,6.90
2023-04-17T06:27:26.568Z,7.30
2023-04-17T06:30:32.902Z,6.70
2023-04-17T06:33:39.126Z,7.80
2023-04-17T06:36:45.613Z,6.90
2023-04-17T06:39:51.694Z,6.00
2023-04-17T06:42:58.176Z,5.60
2023-04-17T06:46:04.484Z,6.40
2023-04-17T06:49:12.677Z,6.10
2023-04-17T06:52:20.398Z,6.70
2023-04-17T06:55:27.640Z,5.80
2023-04-17T06:58:34.036Z,6.10
2023-04-17T07:01:40.575Z,6.20
2023-04-17T07:04:46.765Z,6.90
2023-04-17T07:07:53.320Z,6.50
2023-04-17T07:10:59.648Z,5.50
2023-04-17T07:14:06.545Z,6.10
2023-04-17T07:17:12.659Z,5.90
2023-04-17T07:20:18.948Z,6.00
2023-04-17T07:23:25.462Z,6.20
2023-04-17T07:26:32.196Z,6.10
2023-04-17T07:29:38.458Z,6.40
2023-04-17T07:32:45.008Z,6.50
2023-04-17T07:35:51.041Z,6.00
2023-04-17T07:38:58.079Z,5.80
2023-04-17T07:42:06.631Z,5.90
2023-04-17T07:45:14.886Z,5.30
2023-04-17T07:48:23.368Z,5.20
2023-04-17T07:51:31.346Z,5.20
2023-04-17T07:54:37.439Z,4.80
2023-04-17T07:57:44.047Z,6.20
2023-04-17T08:00:52.155Z,4.50
2023-04-17T08:03:58.854Z,4.10
2023-04-17T08:07:05.235Z,4.00
2023-04-17T08:10:12.586Z,4.10
2023-04-17T08:13:18.687Z,7.00
2023-04-17T08:16:25.113Z,3.80
2023-04-17T08:19:32.091Z,3.60
2023-04-17T08:22:42.961Z,3.00
2023-04-17T08:25:49.545Z,2.70
2023-04-17T08:28:56.597Z,2.50
2023-04-17T08:32:14.101Z,2.80
2023-04-17T08:35:22.110Z,2.70
2023-04-17T08:38:30.230Z,2.50
2023-04-17T08:41:44.291Z,2.70
2023-04-17T08:44:50.558Z,2.90
2023-04-17T08:47:57.057Z,3.20
2023-04-17T08:51:03.663Z,2.80
2023-04-17T08:54:10.272Z,2.70
2023-04-17T08:57:16.437Z,2.80
2023-04-17T09:00:32.075Z,3.00
2023-04-17T09:03:44.710Z,3.00
2023-04-17T09:06:54.735Z,2.80
2023-04-17T09:10:01.332Z,3.00
2023-04-17T09:13:08.801Z,2.90
2023-04-17T09:16:16.833Z,3.20
2023-04-17T09:19:23.149Z,2.90
2023-04-17T09:22:29.339Z,2.70
2023-04-17T09:25:35.693Z,3.10
2023-04-17T09:28:43.817Z,3.30
2023-04-17T09:31:50.206Z,2.40
2023-04-17T09:34:58.200Z,2.50
2023-04-17T09:38:04.488Z,2.80
2023-04-17T09:41:25.565Z,2.80
2023-04-17T09:44:32.651Z,2.30
2023-04-17T09:47:41.736Z,2.60
2023-04-17T09:50:48.983Z,2.80
2023-04-17T09:53:56.995Z,2.40
2023-04-17T09:57:04.621Z,2.60
2023-04-17T10:00:15.201Z,2.70
2023-04-17T10:03:22.411Z,2.70
2023-04-17T10:06:28.884Z,3.30
2023-04-17T10:09:35.167Z,3.40
2023-04-17T10:12:43.387Z,3.30
2023-04-17T10:15:50.724Z,3.40
2023-04-17T10:19:31.662Z,3.30
2023-04-17T10:22:41.374Z,3.20
2023-04-17T10:25:47.938Z,3.20
2023-04-17T10:28:55.859Z,3.10
2023-04-17T10:32:29.251Z,3.50
2023-04-17T10:35:38.952Z,4.50
2023-04-17T10:42:07.866Z,3.20
2023-04-17T10:45:22.252Z,3.30
2023-04-17T10:48:35.201Z,3.80
2023-04-17T10:51:45.088Z,3.30
2023-04-17T10:55:08.141Z,3.30
2023-04-17T10:58:16.962Z,5.20
2023-04-17T11:01:26.785Z,3.60
2023-04-17T11:04:35.385Z,3.50
2023-04-17T11:07:44.000Z,3.60
2023-04-17T11:10:53.210Z,3.60
2023-04-17T11:13:59.469Z,3.30
2023-04-17T11:17:05.821Z,3.50
2023-04-17T11:20:13.435Z,3.60
2023-04-17T11:23:20.474Z,3.30
2023-04-17T11:26:27.691Z,3.20
2023-04-17T11:29:34.082Z,3.40
2023-04-17T11:32:45.019Z,3.70
2023-04-17T11:35:52.503Z,3.50
2023-04-17T11:39:00.190Z,3.30
2023-04-17T11:42:07.032Z,3.30
2023-04-17T11:45:14.648Z,3.50
2023-04-17T11:48:25.372Z,3.20
2023-04-17T11:51:32.758Z,3.30
2023-04-17T11:54:39.913Z,3.50
2023-04-17T11:57:52.394Z,3.60
2023-04-17T12:01:08.453Z,3.40
2023-04-17T12:04:23.270Z,3.60
2023-04-17T12:07:29.436Z,3.70
2023-04-17T12:10:43.414Z,3.50
2023-04-17T12:13:49.731Z,3.70
2023-04-17T12:16:56.147Z,3.60
2023-04-17T12:20:04.286Z,3.30
2023-04-17T12:23:10.890Z,3.50
2023-04-17T12:26:17.607Z,3.80
2023-04-17T12:29:36.193Z,3.20
2023-04-17T12:32:49.684Z,3.10
2023-04-17T12:35:57.028Z,2.50
2023-04-17T12:39:03.282Z,2.40
2023-04-17T12:42:10.605Z,2.80
2023-04-17T12:45:17.115Z,2.60
2023-04-17T12:48:23.442Z,2.90
2023-04-17T12:51:29.806Z,2.90
2023-04-17T12:54:36.456Z,2.70
2023-04-17T12:57:42.757Z,3.00
2023-04-17T13:00:49.646Z,3.00
2023-04-17T13:03:56.101Z,3.10
2023-04-17T13:07:03.033Z,3.10
2023-04-17T13:10:11.027Z,3.40
2023-04-17T13:13:17.427Z,3.30
2023-04-17T13:16:23.837Z,3.00
2023-04-17T13:19:30.304Z,3.10
2023-04-17T13:22:37.256Z,3.10
2023-04-17T13:28:58.351Z,3.30
2023-04-17T13:32:04.654Z,3.20
2023-04-17T13:35:13.754Z,3.10
2023-04-17T13:38:20.164Z,3.10
2023-04-17T13:41:26.871Z,3.60
2023-04-17T13:44:33.423Z,3.30
2023-04-17T13:47:39.789Z,2.90
2023-04-17T13:50:45.858Z,3.20
2023-04-17T13:53:52.121Z,2.90
2023-04-17T13:56:58.689Z,3.20
2023-04-17T14:00:04.966Z,3.10
2023-04-17T14:03:12.058Z,3.50
2023-04-17T14:06:19.223Z,3.10
2023-04-17T14:09:26.019Z,3.00
2023-04-17T14:12:32.258Z,3.60
2023-04-17T14:15:40.315Z,3.80
2023-04-17T14:18:47.438Z,3.90
2023-04-17T14:21:53.758Z,3.70
2023-04-17T14:25:03.208Z,3.70
2023-04-17T14:28:09.964Z,4.00
2023-04-17T14:31:16.517Z,4.10
2023-04-17T14:34:22.696Z,4.30
2023-04-17T14:37:29.449Z,4.20
2023-04-17T14:40:35.867Z,4.00
2023-04-17T14:43:42.258Z,4.10
2023-04-17T14:46:50.603Z,3.80
2023-04-17T14:49:57.182Z,3.80
2023-04-17T14:53:04.882Z,4.30
2023-04-17T14:56:11.724Z,4.00
2023-04-17T14:59:18.563Z,3.90
2023-04-17T15:02:25.190Z,4.50
2023-04-17T15:05:31.527Z,4.80
2023-04-17T15:08:37.795Z,4.50
2023-04-17T15:11:44.210Z,4.70
2023-04-17T15:14:50.398Z,4.10
2023-04-17T15:17:56.707Z,4.40
2023-04-17T15:21:03.002Z,3.80
2023-04-17T15:24:10.388Z,3.70
2023-04-17T15:27:16.509Z,3.80
2023-04-17T15:30:22.721Z,4.00
2023-04-17T15:33:29.246Z,3.40
2023-04-17T15:36:35.615Z,3.40
2023-04-17T15:39:43.100Z,3.60
2023-04-17T15:42:49.316Z,3.30
2023-04-17T15:45:55.912Z,3.80
2023-04-17T15:49:08.767Z,3.80
2023-04-17T15:52:15.604Z,4.00
2023-04-17T15:55:22.178Z,3.90
2023-04-17T15:58:28.868Z,3.80
2023-04-17T16:01:35.350Z,3.80
2023-04-17T16:04:43.931Z,4.00
2023-04-17T16:11:20.802Z,3.60
2023-04-17T16:14:27.876Z,3.70
2023-04-17T16:17:34.245Z,3.70
2023-04-17T16:20:40.584Z,3.50
2023-04-17T16:23:48.909Z,3.90
2023-04-17T16:26:58.387Z,3.70
2023-04-17T16:30:05.279Z,3.60
2023-04-17T16:33:11.764Z,3.60
2023-04-17T16:36:17.840Z,4.10
2023-04-17T16:39:24.066Z,3.70
2023-04-17T16:42:30.951Z,4.40
2023-04-17T16:45:39.481Z,3.80
2023-04-17T16:48:46.173Z,3.80
2023-04-17T16:51:52.717Z,3.60
2023-04-17T16:54:59.391Z,3.60
2023-04-17T16:58:06.431Z,4.30
2023-04-17T17:01:12.840Z,4.20
2023-04-17T17:04:19.886Z,6.30
2023-04-17T17:07:26.264Z,3.90
2023-04-17T17:10:32.584Z,4.10
2023-04-17T17:13:38.977Z,4.30
2023-04-17T17:16:45.656Z,5.10
2023-04-17T17:19:51.780Z,5.30
2023-04-17T17:22:57.798Z,5.00
2023-04-17T17:26:04.181Z,6.10
2023-04-17T17:29:10.768Z,5.60
2023-04-17T17:32:18.012Z,6.60
2023-04-17T17:35:24.643Z,6.40
2023-04-17T17:38:32.801Z,6.50
2023-04-17T17:41:39.062Z,7.20
2023-04-17T17:44:46.263Z,8.70
2023-04-17T17:47:53.276Z,7.20
2023-04-17T17:50:59.877Z,5.20
2023-04-17T17:54:06.419Z,5.50
2023-04-17T17:57:12.744Z,5.40
2023-04-17T18:00:20.359Z,5.30
2023-04-17T18:03:27.279Z,4.70
2023-04-17T18:06:35.316Z,4.80
2023-04-17T18:09:41.919Z,4.40
2023-04-17T18:12:49.231Z,4.60
2023-04-17T18:15:55.576Z,4.50
2023-04-17T18:19:03.612Z,4.60
2023-04-17T18:22:10.756Z,4.10
2023-04-17T18:25:17.493Z,4.30
2023-04-17T18:28:23.767Z,4.40
2023-04-17T18:31:30.274Z,4.40
2023-04-17T18:34:36.450Z,4.90
2023-04-17T18:37:44.994Z,4.50
2023-04-17T18:40:59.309Z,4.40
2023-04-17T18:44:06.103Z,4.00
2023-04-17T18:47:14.787Z,3.90
2023-04-17T18:50:21.240Z,3.70
2023-04-17T18:53:27.579Z,4.10
2023-04-17T18:56:33.674Z,4.00
2023-04-17T18:59:41.448Z,4.00
2023-04-17T19:02:49.556Z,3.90
2023-04-17T19:05:55.920Z,4.10
2023-04-17T19:09:02.382Z,4.20
2023-04-17T19:12:08.902Z,3.80
2023-04-17T19:15:17.867Z,4.20
2023-04-17T19:18:24.607Z,4.20
2023-04-17T19:21:31.900Z,3.70
2023-04-17T19:24:37.979Z,3.80
2023-04-17T19:27:44.198Z,3.60
2023-04-17T19:30:50.867Z,3.60
2023-04-17T19:33:57.509Z,3.60
2023-04-17T19:37:03.842Z,3.30
2023-04-17T19:40:23.663Z,3.70
2023-04-17T19:43:31.937Z,3.50
2023-04-17T19:46:38.288Z,3.50
2023-04-17T19:49:44.918Z,3.60
2023-04-17T19:52:52.039Z,3.40
2023-04-17T19:55:58.047Z,3.10
2023-04-17T19:59:05.857Z,3.10
2023-04-17T20:02:12.929Z,3.10
2023-04-17T20:05:19.552Z,3.10
2023-04-17T20:08:25.987Z,3.50
2023-04-17T20:11:32.334Z,2.90
2023-04-17T20:14:38.368Z,2.70
2023-04-17T20:17:45.579Z,3.20
2023-04-17T20:20:51.725Z,2.70
2023-04-17T20:23:59.468Z,3.10
2023-04-17T20:27:06.308Z,2.80
2023-04-17T20:30:14.128Z,2.80
2023-04-17T20:33:20.667Z,3.00
2023-04-17T20:36:27.410Z,2.90
2023-04-17T20:39:33.675Z,2.80
2023-04-17T20:42:40.224Z,3.00
2023-04-17T20:45:48.246Z,2.50
2023-04-17T20:48:54.285Z,2.70
2023-04-17T20:52:02.170Z,3.00
2023-04-17T20:55:09.497Z,2.80
2023-04-17T20:58:15.533Z,3.00
2023-04-17T21:01:21.706Z,2.90
2023-04-17T21:04:28.014Z,2.90
2023-04-17T21:07:34.643Z,2.70
2023-04-17T21:10:40.802Z,2.70
2023-04-17T21:13:46.908Z,2.70
2023-04-17T21:16:54.991Z,2.80
2023-04-17T21:20:01.139Z,2.60
2023-04-17T21:23:07.559Z,2.70
2023-04-17T21:26:13.586Z,3.00
2023-04-17T21:29:19.702Z,2.90
2023-04-17T21:32:26.222Z,2.70
2023-04-17T21:35:32.517Z,2.60
2023-04-17T21:38:38.843Z,2.70
2023-04-17T21:41:45.401Z,2.60
2023-04-17T21:44:51.553Z,2.60
2023-04-17T21:47:57.832Z,2.80
2023-04-17T21:51:05.659Z,2.70
2023-04-17T21:54:12.781Z,3.00
2023-04-17T21:57:19.229Z,3.10
2023-04-17T22:00:25.716Z,2.70
2023-04-17T22:03:31.948Z,3.20
2023-04-17T22:06:39.285Z,3.10
2023-04-17T22:09:45.501Z,3.10
2023-04-17T22:12:51.915Z,2.80
2023-04-17T22:15:58.641Z,2.90
2023-04-17T22:19:04.850Z,2.60
2023-04-17T22:22:11.183Z,2.90
2023-04-17T22:25:17.762Z,2.90
2023-04-17T22:28:24.055Z,2.90
2023-04-17T22:31:30.921Z,3.30
2023-04-17T22:34:37.492Z,3.10
2023-04-17T22:37:43.747Z,3.00
2023-04-17T22:40:50.352Z,2.80
2023-04-17T22:43:56.556Z,2.90
2023-04-17T22:47:02.662Z,2.90
2023-04-17T22:50:11.950Z,3.30
2023-04-17T22:53:18.192Z,3.00
2023-04-17T22:56:24.655Z,3.30
2023-04-17T22:59:30.989Z,3.20
2023-04-17T23:02:37.332Z,3.30
2023-04-17T23:05:43.533Z,3.10
2023-04-17T23:08:49.643Z,3.20
2023-04-17T23:11:56.213Z,3.30
2023-04-17T23:15:02.466Z,3.10
2023-04-17T23:18:09.174Z,3.30
2023-04-17T23:21:15.869Z,2.80
2023-04-17T23:24:22.334Z,3.10
2023-04-17T23:27:28.613Z,3.30
2023-04-17T23:30:35.113Z,3.20
2023-04-17T23:33:41.612Z,2.90
2023-04-17T23:36:48.547Z,2.90
2023-04-17T23:39:55.180Z,2.90
2023-04-17T23:43:01.547Z,3.00
2023-04-17T23:46:07.849Z,3.00
2023-04-17T23:49:14.264Z,3.00
2023-04-17T23:52:20.848Z,2.80
2023-04-17T23:55:27.558Z,3.00
2023-04-17T23:58:33.782Z,3.00
